sensor_id;sensor_type;location;lat;lon;timestamp;P1;durP1;ratioP1;P2;durP2;ratioP2
7191;SDS011;3637;51.494;11.958;2023-10-08T00:00:40;11.07;;;4.73;;
7191;SDS011;3637;51.494;11.958;2023-10-08T00:03:46;10.10;;;4.60;;
7191;SDS011;3637;51.494;11.958;2023-10-08T00:06:50;9.70;;;5.23;;
7191;SDS011;3637;51.494;11.958;2023-10-08T00:09:53;7.00;;;4.80;;
7191;SDS011;3637;51.494;11.958;2023-10-08T00:12:55;7.00;;;4.87;;
7191;SDS011;3637;51.494;11.958;2023-10-08T00:15:58;8.40;;;4.63;;
7191;SDS011;3637;51.494;11.958;2023-10-08T00:19:00;7.10;;;4.53;;
7191;SDS011;3637;51.494;11.958;2023-10-08T00:22:08;8.23;;;4.77;;
7191;SDS011;3637;51.494;11.958;2023-10-08T00:25:11;8.37;;;4.93;;
7191;SDS011;3637;51.494;11.958;2023-10-08T00:28:13;8.23;;;5.03;;
7191;SDS011;3637;51.494;11.958;2023-10-08T00:31:16;7.87;;;4.90;;
7191;SDS011;3637;51.494;11.958;2023-10-08T00:34:18;6.83;;;4.90;;
7191;SDS011;3637;51.494;11.958;2023-10-08T00:37:20;10.10;;;5.10;;
7191;SDS011;3637;51.494;11.958;2023-10-08T00:40:35;8.27;;;5.27;;
7191;SDS011;3637;51.494;11.958;2023-10-08T00:43:38;10.00;;;5.43;;
7191;SDS011;3637;51.494;11.958;2023-10-08T00:46:42;12.10;;;5.20;;
7191;SDS011;3637;51.494;11.958;2023-10-08T00:49:48;7.30;;;5.07;;
7191;SDS011;3637;51.494;11.958;2023-10-08T00:52:54;9.80;;;5.53;;
7191;SDS011;3637;51.494;11.958;2023-10-08T00:56:00;8.87;;;5.00;;
7191;SDS011;3637;51.494;11.958;2023-10-08T00:59:07;6.50;;;4.10;;
7191;SDS011;3637;51.494;11.958;2023-10-08T01:02:14;3.97;;;3.57;;
7191;SDS011;3637;51.494;11.958;2023-10-08T01:05:20;3.67;;;3.20;;
7191;SDS011;3637;51.494;11.958;2023-10-08T01:08:26;3.40;;;2.50;;
7191;SDS011;3637;51.494;11.958;2023-10-08T01:11:36;3.57;;;2.27;;
7191;SDS011;3637;51.494;11.958;2023-10-08T01:14:46;2.27;;;2.07;;
7191;SDS011;3637;51.494;11.958;2023-10-08T01:17:50;2.40;;;1.83;;
7191;SDS011;3637;51.494;11.958;2023-10-08T01:20:58;1.50;;;1.40;;
7191;SDS011;3637;51.494;11.958;2023-10-08T01:24:09;1.37;;;1.10;;
7191;SDS011;3637;51.494;11.958;2023-10-08T01:27:16;1.13;;;0.90;;
7191;SDS011;3637;51.494;11.958;2023-10-08T01:30:21;0.70;;;0.70;;
7191;SDS011;3637;51.494;11.958;2023-10-08T01:33:24;1.30;;;1.00;;
7191;SDS011;3637;51.494;11.958;2023-10-08T01:36:28;0.60;;;0.60;;
7191;SDS011;3637;51.494;11.958;2023-10-08T01:39:35;0.80;;;0.80;;
7191;SDS011;3637;51.494;11.958;2023-10-08T01:42:38;0.70;;;0.70;;
7191;SDS011;3637;51.494;11.958;2023-10-08T01:45:40;0.63;;;0.63;;
7191;SDS011;3637;51.494;11.958;2023-10-08T01:48:43;0.87;;;0.87;;
7191;SDS011;3637;51.494;11.958;2023-10-08T01:51:45;0.80;;;0.80;;
7191;SDS011;3637;51.494;11.958;2023-10-08T01:54:49;1.37;;;0.80;;
7191;SDS011;3637;51.494;11.958;2023-10-08T01:57:53;0.80;;;0.80;;
7191;SDS011;3637;51.494;11.958;2023-10-08T02:00:56;1.43;;;0.90;;
7191;SDS011;3637;51.494;11.958;2023-10-08T02:03:59;0.80;;;0.80;;
7191;SDS011;3637;51.494;11.958;2023-10-08T02:07:02;0.70;;;0.70;;
7191;SDS011;3637;51.494;11.958;2023-10-08T02:10:09;0.73;;;0.73;;
7191;SDS011;3637;51.494;11.958;2023-10-08T02:13:11;0.60;;;0.60;;
7191;SDS011;3637;51.494;11.958;2023-10-08T02:16:17;0.80;;;0.80;;
7191;SDS011;3637;51.494;11.958;2023-10-08T02:19:19;0.60;;;0.60;;
7191;SDS011;3637;51.494;11.958;2023-10-08T02:22:26;0.70;;;0.70;;
7191;SDS011;3637;51.494;11.958;2023-10-08T02:25:30;1.10;;;0.87;;
7191;SDS011;3637;51.494;11.958;2023-10-08T02:28:35;0.70;;;0.70;;
7191;SDS011;3637;51.494;11.958;2023-10-08T02:31:38;0.60;;;0.60;;
7191;SDS011;3637;51.494;11.958;2023-10-08T02:34:41;0.80;;;0.80;;
7191;SDS011;3637;51.494;11.958;2023-10-08T02:37:43;0.80;;;0.80;;
7191;SDS011;3637;51.494;11.958;2023-10-08T02:40:47;0.80;;;0.80;;
7191;SDS011;3637;51.494;11.958;2023-10-08T02:43:49;0.87;;;0.87;;
7191;SDS011;3637;51.494;11.958;2023-10-08T02:46:51;1.10;;;1.00;;
7191;SDS011;3637;51.494;11.958;2023-10-08T02:49:54;0.60;;;0.60;;
7191;SDS011;3637;51.494;11.958;2023-10-08T02:52:57;0.70;;;0.70;;
7191;SDS011;3637;51.494;11.958;2023-10-08T02:56:05;1.63;;;1.13;;
7191;SDS011;3637;51.494;11.958;2023-10-08T02:59:12;1.20;;;1.10;;
7191;SDS011;3637;51.494;11.958;2023-10-08T03:02:15;1.60;;;1.50;;
7191;SDS011;3637;51.494;11.958;2023-10-08T03:05:18;2.50;;;2.30;;
7191;SDS011;3637;51.494;11.958;2023-10-08T03:08:22;3.27;;;2.80;;
7191;SDS011;3637;51.494;11.958;2023-10-08T03:11:25;3.27;;;2.80;;
7191;SDS011;3637;51.494;11.958;2023-10-08T03:14:27;3.30;;;2.63;;
7191;SDS011;3637;51.494;11.958;2023-10-08T03:17:41;2.90;;;2.60;;
7191;SDS011;3637;51.494;11.958;2023-10-08T03:21:00;3.47;;;2.47;;
7191;SDS011;3637;51.494;11.958;2023-10-08T03:24:04;2.80;;;2.50;;
7191;SDS011;3637;51.494;11.958;2023-10-08T03:27:13;2.60;;;1.97;;
7191;SDS011;3637;51.494;11.958;2023-10-08T03:30:20;2.63;;;2.43;;
7191;SDS011;3637;51.494;11.958;2023-10-08T03:33:27;2.27;;;2.07;;
7191;SDS011;3637;51.494;11.958;2023-10-08T03:36:29;2.40;;;2.20;;
7191;SDS011;3637;51.494;11.958;2023-10-08T03:39:34;2.77;;;1.97;;
7191;SDS011;3637;51.494;11.958;2023-10-08T03:43:02;2.40;;;1.80;;
7191;SDS011;3637;51.494;11.958;2023-10-08T03:46:15;2.20;;;2.00;;
7191;SDS011;3637;51.494;11.958;2023-10-08T03:49:16;1.70;;;1.60;;
7191;SDS011;3637;51.494;11.958;2023-10-08T03:52:25;1.50;;;1.40;;
7191;SDS011;3637;51.494;11.958;2023-10-08T03:55:27;1.30;;;1.20;;
7191;SDS011;3637;51.494;11.958;2023-10-08T03:58:36;1.00;;;1.00;;
7191;SDS011;3637;51.494;11.958;2023-10-08T04:01:44;1.03;;;1.03;;
7191;SDS011;3637;51.494;11.958;2023-10-08T04:04:48;0.83;;;0.83;;
7191;SDS011;3637;51.494;11.958;2023-10-08T04:07:51;1.13;;;1.03;;
7191;SDS011;3637;51.494;11.958;2023-10-08T04:11:21;0.80;;;0.80;;
7191;SDS011;3637;51.494;11.958;2023-10-08T04:14:36;1.00;;;1.00;;
7191;SDS011;3637;51.494;11.958;2023-10-08T04:17:39;1.17;;;1.07;;
7191;SDS011;3637;51.494;11.958;2023-10-08T04:20:44;0.90;;;0.90;;
7191;SDS011;3637;51.494;11.958;2023-10-08T04:24:00;1.13;;;0.93;;
7191;SDS011;3637;51.494;11.958;2023-10-08T04:27:04;1.30;;;1.20;;
7191;SDS011;3637;51.494;11.958;2023-10-08T04:30:11;1.30;;;1.20;;
7191;SDS011;3637;51.494;11.958;2023-10-08T04:33:13;1.10;;;1.00;;
7191;SDS011;3637;51.494;11.958;2023-10-08T04:36:16;1.17;;;1.07;;
7191;SDS011;3637;51.494;11.958;2023-10-08T04:39:20;1.30;;;1.20;;
7191;SDS011;3637;51.494;11.958;2023-10-08T04:42:23;1.50;;;1.40;;
7191;SDS011;3637;51.494;11.958;2023-10-08T04:45:28;2.17;;;1.50;;
7191;SDS011;3637;51.494;11.958;2023-10-08T04:48:34;2.30;;;1.90;;
7191;SDS011;3637;51.494;11.958;2023-10-08T04:51:36;2.27;;;2.07;;
7191;SDS011;3637;51.494;11.958;2023-10-08T04:54:43;3.50;;;2.70;;
7191;SDS011;3637;51.494;11.958;2023-10-08T04:57:51;4.17;;;3.10;;
7191;SDS011;3637;51.494;11.958;2023-10-08T05:01:28;5.27;;;3.83;;
7191;SDS011;3637;51.494;11.958;2023-10-08T05:04:38;5.55;;;4.20;;
7191;SDS011;3637;51.494;11.958;2023-10-08T05:07:56;5.43;;;4.40;;
7191;SDS011;3637;51.494;11.958;2023-10-08T05:11:15;7.27;;;4.77;;
7191;SDS011;3637;51.494;11.958;2023-10-08T05:14:36;6.87;;;5.63;;
7191;SDS011;3637;51.494;11.958;2023-10-08T05:17:57;6.87;;;5.20;;
7191;SDS011;3637;51.494;11.958;2023-10-08T05:21:13;8.33;;;6.33;;
7191;SDS011;3637;51.494;11.958;2023-10-08T05:24:25;8.50;;;6.07;;
7191;SDS011;3637;51.494;11.958;2023-10-08T05:27:38;8.83;;;6.83;;
7191;SDS011;3637;51.494;11.958;2023-10-08T05:30:58;5.63;;;4.60;;
7191;SDS011;3637;51.494;11.958;2023-10-08T05:34:13;4.37;;;3.80;;
7191;SDS011;3637;51.494;11.958;2023-10-08T05:37:32;4.70;;;3.23;;
7191;SDS011;3637;51.494;11.958;2023-10-08T05:40:42;4.53;;;3.65;;
7191;SDS011;3637;51.494;11.958;2023-10-08T05:44:01;3.93;;;2.93;;
7191;SDS011;3637;51.494;11.958;2023-10-08T05:47:23;3.90;;;2.90;;
7191;SDS011;3637;51.494;11.958;2023-10-08T05:50:40;3.83;;;2.53;;
7191;SDS011;3637;51.494;11.958;2023-10-08T05:53:55;6.53;;;2.60;;
7191;SDS011;3637;51.494;11.958;2023-10-08T05:56:56;5.40;;;2.60;;
7191;SDS011;3637;51.494;11.958;2023-10-08T06:00:14;4.43;;;2.27;;
7191;SDS011;3637;51.494;11.958;2023-10-08T06:03:34;5.33;;;2.67;;
7191;SDS011;3637;51.494;11.958;2023-10-08T06:06:47;3.27;;;2.37;;
7191;SDS011;3637;51.494;11.958;2023-10-08T06:09:58;6.40;;;2.53;;
7191;SDS011;3637;51.494;11.958;2023-10-08T06:13:03;5.93;;;2.60;;
7191;SDS011;3637;51.494;11.958;2023-10-08T06:16:10;13.53;;;3.33;;
7191;SDS011;3637;51.494;11.958;2023-10-08T06:19:13;5.63;;;2.73;;
7191;SDS011;3637;51.494;11.958;2023-10-08T06:22:17;7.03;;;2.70;;
7191;SDS011;3637;51.494;11.958;2023-10-08T06:25:19;6.53;;;3.57;;
7191;SDS011;3637;51.494;11.958;2023-10-08T06:28:24;5.53;;;2.50;;
7191;SDS011;3637;51.494;11.958;2023-10-08T06:31:27;7.23;;;2.70;;
7191;SDS011;3637;51.494;11.958;2023-10-08T06:34:31;7.47;;;2.90;;
7191;SDS011;3637;51.494;11.958;2023-10-08T06:37:35;7.93;;;3.30;;
7191;SDS011;3637;51.494;11.958;2023-10-08T06:40:37;4.70;;;2.50;;
7191;SDS011;3637;51.494;11.958;2023-10-08T06:43:45;5.93;;;3.00;;
7191;SDS011;3637;51.494;11.958;2023-10-08T06:46:49;7.43;;;2.93;;
7191;SDS011;3637;51.494;11.958;2023-10-08T06:49:54;6.57;;;2.83;;
7191;SDS011;3637;51.494;11.958;2023-10-08T06:52:59;8.43;;;2.80;;
7191;SDS011;3637;51.494;11.958;2023-10-08T06:56:06;6.80;;;3.17;;
7191;SDS011;3637;51.494;11.958;2023-10-08T06:59:10;6.60;;;2.93;;
7191;SDS011;3637;51.494;11.958;2023-10-08T07:02:11;7.40;;;3.00;;
7191;SDS011;3637;51.494;11.958;2023-10-08T07:05:15;7.33;;;3.27;;
7191;SDS011;3637;51.494;11.958;2023-10-08T07:08:20;5.90;;;2.90;;
7191;SDS011;3637;51.494;11.958;2023-10-08T07:11:23;8.73;;;3.10;;
7191;SDS011;3637;51.494;11.958;2023-10-08T07:14:27;6.43;;;2.97;;
7191;SDS011;3637;51.494;11.958;2023-10-08T07:17:30;7.60;;;3.17;;
7191;SDS011;3637;51.494;11.958;2023-10-08T07:20:44;7.63;;;2.83;;
7191;SDS011;3637;51.494;11.958;2023-10-08T07:23:54;6.63;;;2.60;;
7191;SDS011;3637;51.494;11.958;2023-10-08T07:26:59;5.30;;;2.60;;
7191;SDS011;3637;51.494;11.958;2023-10-08T07:30:06;6.73;;;3.10;;
7191;SDS011;3637;51.494;11.958;2023-10-08T07:33:10;9.10;;;2.30;;
7191;SDS011;3637;51.494;11.958;2023-10-08T07:36:17;4.97;;;2.60;;
7191;SDS011;3637;51.494;11.958;2023-10-08T07:39:22;4.40;;;2.57;;
7191;SDS011;3637;51.494;11.958;2023-10-08T07:42:33;3.77;;;2.40;;
7191;SDS011;3637;51.494;11.958;2023-10-08T07:45:35;7.87;;;2.23;;
7191;SDS011;3637;51.494;11.958;2023-10-08T07:48:37;5.63;;;2.20;;
7191;SDS011;3637;51.494;11.958;2023-10-08T07:51:42;11.30;;;2.10;;
7191;SDS011;3637;51.494;11.958;2023-10-08T07:54:52;5.17;;;2.17;;
7191;SDS011;3637;51.494;11.958;2023-10-08T07:57:54;3.23;;;1.80;;
7191;SDS011;3637;51.494;11.958;2023-10-08T08:00:55;4.50;;;1.80;;
7191;SDS011;3637;51.494;11.958;2023-10-08T08:04:00;3.67;;;2.07;;
7191;SDS011;3637;51.494;11.958;2023-10-08T08:07:02;5.07;;;2.07;;
7191;SDS011;3637;51.494;11.958;2023-10-08T08:10:08;5.87;;;2.57;;
7191;SDS011;3637;51.494;11.958;2023-10-08T08:13:11;6.77;;;2.80;;
7191;SDS011;3637;51.494;11.958;2023-10-08T08:16:14;5.20;;;1.90;;
7191;SDS011;3637;51.494;11.958;2023-10-08T08:19:20;5.40;;;2.77;;
7191;SDS011;3637;51.494;11.958;2023-10-08T08:22:24;7.60;;;2.47;;
7191;SDS011;3637;51.494;11.958;2023-10-08T08:25:32;7.07;;;2.50;;
7191;SDS011;3637;51.494;11.958;2023-10-08T08:28:45;5.93;;;2.30;;
7191;SDS011;3637;51.494;11.958;2023-10-08T08:31:47;4.57;;;2.10;;
7191;SDS011;3637;51.494;11.958;2023-10-08T08:34:53;4.80;;;2.00;;
7191;SDS011;3637;51.494;11.958;2023-10-08T08:37:55;4.70;;;2.10;;
7191;SDS011;3637;51.494;11.958;2023-10-08T08:41:05;4.93;;;2.10;;
7191;SDS011;3637;51.494;11.958;2023-10-08T08:44:07;3.50;;;2.20;;
7191;SDS011;3637;51.494;11.958;2023-10-08T08:47:09;6.27;;;2.17;;
7191;SDS011;3637;51.494;11.958;2023-10-08T08:50:17;5.60;;;2.70;;
7191;SDS011;3637;51.494;11.958;2023-10-08T08:53:19;4.87;;;2.40;;
7191;SDS011;3637;51.494;11.958;2023-10-08T08:56:23;4.23;;;2.23;;
7191;SDS011;3637;51.494;11.958;2023-10-08T08:59:26;8.03;;;2.63;;
7191;SDS011;3637;51.494;11.958;2023-10-08T09:02:30;4.00;;;2.50;;
7191;SDS011;3637;51.494;11.958;2023-10-08T09:05:32;4.97;;;2.33;;
7191;SDS011;3637;51.494;11.958;2023-10-08T09:08:35;3.93;;;2.20;;
7191;SDS011;3637;51.494;11.958;2023-10-08T09:11:39;7.27;;;2.10;;
7191;SDS011;3637;51.494;11.958;2023-10-08T09:14:43;3.20;;;1.87;;
7191;SDS011;3637;51.494;11.958;2023-10-08T09:17:45;9.33;;;2.67;;
7191;SDS011;3637;51.494;11.958;2023-10-08T09:20:47;4.50;;;2.10;;
7191;SDS011;3637;51.494;11.958;2023-10-08T09:23:50;9.33;;;3.37;;
7191;SDS011;3637;51.494;11.958;2023-10-08T09:26:55;6.60;;;2.63;;
7191;SDS011;3637;51.494;11.958;2023-10-08T09:29:58;4.43;;;2.00;;
7191;SDS011;3637;51.494;11.958;2023-10-08T09:33:00;5.57;;;2.60;;
7191;SDS011;3637;51.494;11.958;2023-10-08T09:36:02;8.83;;;2.37;;
7191;SDS011;3637;51.494;11.958;2023-10-08T09:39:07;4.80;;;2.30;;
7191;SDS011;3637;51.494;11.958;2023-10-08T09:42:24;4.10;;;2.10;;
7191;SDS011;3637;51.494;11.958;2023-10-08T09:45:27;6.10;;;2.50;;
7191;SDS011;3637;51.494;11.958;2023-10-08T09:48:30;7.00;;;2.90;;
7191;SDS011;3637;51.494;11.958;2023-10-08T09:51:37;7.43;;;3.40;;
7191;SDS011;3637;51.494;11.958;2023-10-08T09:54:42;4.60;;;2.63;;
7191;SDS011;3637;51.494;11.958;2023-10-08T09:57:48;5.70;;;3.00;;
7191;SDS011;3637;51.494;11.958;2023-10-08T10:00:52;5.87;;;2.67;;
7191;SDS011;3637;51.494;11.958;2023-10-08T10:03:56;4.63;;;2.77;;
7191;SDS011;3637;51.494;11.958;2023-10-08T10:07:01;8.77;;;3.47;;
7191;SDS011;3637;51.494;11.958;2023-10-08T10:10:25;6.93;;;3.47;;
7191;SDS011;3637;51.494;11.958;2023-10-08T10:13:29;6.03;;;3.07;;
7191;SDS011;3637;51.494;11.958;2023-10-08T10:16:36;6.03;;;2.90;;
7191;SDS011;3637;51.494;11.958;2023-10-08T10:19:39;6.80;;;3.03;;
7191;SDS011;3637;51.494;11.958;2023-10-08T10:22:45;8.13;;;3.07;;
7191;SDS011;3637;51.494;11.958;2023-10-08T10:25:47;4.97;;;3.00;;
7191;SDS011;3637;51.494;11.958;2023-10-08T10:32:32;9.63;;;3.10;;
7191;SDS011;3637;51.494;11.958;2023-10-08T10:35:35;6.23;;;3.37;;
7191;SDS011;3637;51.494;11.958;2023-10-08T10:38:40;7.20;;;3.10;;
7191;SDS011;3637;51.494;11.958;2023-10-08T10:41:43;6.03;;;3.30;;
7191;SDS011;3637;51.494;11.958;2023-10-08T10:44:47;12.57;;;3.63;;
7191;SDS011;3637;51.494;11.958;2023-10-08T10:47:52;7.50;;;3.77;;
7191;SDS011;3637;51.494;11.958;2023-10-08T10:51:00;6.40;;;3.30;;
7191;SDS011;3637;51.494;11.958;2023-10-08T10:54:17;5.40;;;3.10;;
7191;SDS011;3637;51.494;11.958;2023-10-08T10:57:24;5.90;;;3.20;;
7191;SDS011;3637;51.494;11.958;2023-10-08T11:00:36;9.30;;;3.60;;
7191;SDS011;3637;51.494;11.958;2023-10-08T11:03:57;6.10;;;3.10;;
7191;SDS011;3637;51.494;11.958;2023-10-08T11:06:58;8.83;;;3.70;;
7191;SDS011;3637;51.494;11.958;2023-10-08T11:10:01;6.83;;;3.53;;
7191;SDS011;3637;51.494;11.958;2023-10-08T11:13:06;7.03;;;4.00;;
7191;SDS011;3637;51.494;11.958;2023-10-08T11:16:15;5.83;;;3.90;;
7191;SDS011;3637;51.494;11.958;2023-10-08T11:19:20;6.50;;;3.67;;
7191;SDS011;3637;51.494;11.958;2023-10-08T11:22:21;6.90;;;3.57;;
7191;SDS011;3637;51.494;11.958;2023-10-08T11:25:24;10.17;;;3.50;;
7191;SDS011;3637;51.494;11.958;2023-10-08T11:28:31;5.60;;;3.20;;
7191;SDS011;3637;51.494;11.958;2023-10-08T11:31:36;6.20;;;3.07;;
7191;SDS011;3637;51.494;11.958;2023-10-08T11:34:39;5.30;;;3.00;;
7191;SDS011;3637;51.494;11.958;2023-10-08T11:37:44;5.87;;;2.97;;
7191;SDS011;3637;51.494;11.958;2023-10-08T11:40:48;7.03;;;2.90;;
7191;SDS011;3637;51.494;11.958;2023-10-08T11:43:51;5.10;;;3.23;;
7191;SDS011;3637;51.494;11.958;2023-10-08T11:46:58;7.40;;;3.20;;
7191;SDS011;3637;51.494;11.958;2023-10-08T11:50:11;6.37;;;2.30;;
7191;SDS011;3637;51.494;11.958;2023-10-08T11:53:19;4.07;;;2.03;;
7191;SDS011;3637;51.494;11.958;2023-10-08T11:56:20;7.27;;;2.43;;
7191;SDS011;3637;51.494;11.958;2023-10-08T11:59:23;6.23;;;2.63;;
7191;SDS011;3637;51.494;11.958;2023-10-08T12:02:27;7.37;;;3.10;;
7191;SDS011;3637;51.494;11.958;2023-10-08T12:05:29;5.17;;;2.43;;
7191;SDS011;3637;51.494;11.958;2023-10-08T12:08:32;6.40;;;2.57;;
7191;SDS011;3637;51.494;11.958;2023-10-08T12:11:39;3.47;;;2.20;;
7191;SDS011;3637;51.494;11.958;2023-10-08T12:14:41;5.80;;;2.50;;
7191;SDS011;3637;51.494;11.958;2023-10-08T12:17:47;7.03;;;2.53;;
7191;SDS011;3637;51.494;11.958;2023-10-08T12:21:08;5.50;;;2.40;;
7191;SDS011;3637;51.494;11.958;2023-10-08T12:24:11;4.13;;;2.50;;
7191;SDS011;3637;51.494;11.958;2023-10-08T12:27:12;7.67;;;2.73;;
7191;SDS011;3637;51.494;11.958;2023-10-08T12:30:17;7.57;;;2.37;;
7191;SDS011;3637;51.494;11.958;2023-10-08T12:33:26;3.70;;;2.20;;
7191;SDS011;3637;51.494;11.958;2023-10-08T12:36:30;5.80;;;2.53;;
7191;SDS011;3637;51.494;11.958;2023-10-08T12:39:33;6.33;;;2.73;;
7191;SDS011;3637;51.494;11.958;2023-10-08T12:42:44;6.07;;;2.80;;
7191;SDS011;3637;51.494;11.958;2023-10-08T12:45:46;6.43;;;2.73;;
7191;SDS011;3637;51.494;11.958;2023-10-08T12:48:53;19.03;;;5.00;;
7191;SDS011;3637;51.494;11.958;2023-10-08T12:51:55;7.03;;;2.43;;
7191;SDS011;3637;51.494;11.958;2023-10-08T12:54:59;6.93;;;2.77;;
7191;SDS011;3637;51.494;11.958;2023-10-08T12:58:03;5.27;;;2.57;;
7191;SDS011;3637;51.494;11.958;2023-10-08T13:01:09;8.03;;;2.67;;
7191;SDS011;3637;51.494;11.958;2023-10-08T13:04:13;5.73;;;2.40;;
7191;SDS011;3637;51.494;11.958;2023-10-08T13:07:26;5.83;;;2.20;;
7191;SDS011;3637;51.494;11.958;2023-10-08T13:10:27;4.37;;;2.53;;
7191;SDS011;3637;51.494;11.958;2023-10-08T13:13:31;6.67;;;2.77;;
7191;SDS011;3637;51.494;11.958;2023-10-08T13:16:33;4.90;;;2.40;;
7191;SDS011;3637;51.494;11.958;2023-10-08T13:19:38;5.13;;;2.67;;
7191;SDS011;3637;51.494;11.958;2023-10-08T13:22:40;6.50;;;2.50;;
7191;SDS011;3637;51.494;11.958;2023-10-08T13:25:43;7.83;;;2.60;;
7191;SDS011;3637;51.494;11.958;2023-10-08T13:28:54;5.53;;;2.77;;
7191;SDS011;3637;51.494;11.958;2023-10-08T13:31:55;5.97;;;2.50;;
7191;SDS011;3637;51.494;11.958;2023-10-08T13:34:59;3.23;;;2.00;;
7191;SDS011;3637;51.494;11.958;2023-10-08T13:38:00;6.50;;;2.77;;
7191;SDS011;3637;51.494;11.958;2023-10-08T13:41:09;5.03;;;2.30;;
7191;SDS011;3637;51.494;11.958;2023-10-08T13:44:16;3.80;;;2.20;;
7191;SDS011;3637;51.494;11.958;2023-10-08T13:47:19;5.97;;;2.87;;
7191;SDS011;3637;51.494;11.958;2023-10-08T13:50:26;4.73;;;2.43;;
7191;SDS011;3637;51.494;11.958;2023-10-08T13:53:31;5.87;;;2.43;;
7191;SDS011;3637;51.494;11.958;2023-10-08T13:56:33;5.63;;;2.30;;
7191;SDS011;3637;51.494;11.958;2023-10-08T13:59:37;6.20;;;2.70;;
7191;SDS011;3637;51.494;11.958;2023-10-08T14:02:39;4.13;;;2.80;;
7191;SDS011;3637;51.494;11.958;2023-10-08T14:05:42;4.40;;;2.53;;
7191;SDS011;3637;51.494;11.958;2023-10-08T14:08:50;4.80;;;2.97;;
7191;SDS011;3637;51.494;11.958;2023-10-08T14:11:52;4.60;;;2.60;;
7191;SDS011;3637;51.494;11.958;2023-10-08T14:14:55;3.60;;;2.30;;
7191;SDS011;3637;51.494;11.958;2023-10-08T14:17:57;3.70;;;2.23;;
7191;SDS011;3637;51.494;11.958;2023-10-08T14:21:06;5.30;;;2.30;;
7191;SDS011;3637;51.494;11.958;2023-10-08T14:24:10;7.17;;;2.80;;
7191;SDS011;3637;51.494;11.958;2023-10-08T14:27:15;4.47;;;2.23;;
7191;SDS011;3637;51.494;11.958;2023-10-08T14:30:18;4.87;;;2.70;;
7191;SDS011;3637;51.494;11.958;2023-10-08T14:33:24;4.43;;;2.50;;
7191;SDS011;3637;51.494;11.958;2023-10-08T14:36:29;4.63;;;2.30;;
7191;SDS011;3637;51.494;11.958;2023-10-08T14:39:49;3.63;;;2.20;;
7191;SDS011;3637;51.494;11.958;2023-10-08T14:43:08;3.57;;;2.30;;
7191;SDS011;3637;51.494;11.958;2023-10-08T14:46:11;4.57;;;2.40;;
7191;SDS011;3637;51.494;11.958;2023-10-08T14:49:15;5.80;;;2.30;;
7191;SDS011;3637;51.494;11.958;2023-10-08T14:52:18;5.27;;;2.50;;
7191;SDS011;3637;51.494;11.958;2023-10-08T14:55:20;5.20;;;2.30;;
7191;SDS011;3637;51.494;11.958;2023-10-08T14:58:23;4.03;;;2.50;;
7191;SDS011;3637;51.494;11.958;2023-10-08T15:01:25;5.60;;;2.37;;
7191;SDS011;3637;51.494;11.958;2023-10-08T15:04:28;3.17;;;2.40;;
7191;SDS011;3637;51.494;11.958;2023-10-08T15:07:32;6.03;;;2.70;;
7191;SDS011;3637;51.494;11.958;2023-10-08T15:10:34;4.67;;;2.60;;
7191;SDS011;3637;51.494;11.958;2023-10-08T15:13:36;5.40;;;2.67;;
7191;SDS011;3637;51.494;11.958;2023-10-08T15:16:39;5.13;;;2.40;;
7191;SDS011;3637;51.494;11.958;2023-10-08T15:19:41;4.10;;;2.40;;
7191;SDS011;3637;51.494;11.958;2023-10-08T15:22:44;4.17;;;2.67;;
7191;SDS011;3637;51.494;11.958;2023-10-08T15:25:47;4.87;;;2.67;;
7191;SDS011;3637;51.494;11.958;2023-10-08T15:28:49;4.03;;;2.33;;
7191;SDS011;3637;51.494;11.958;2023-10-08T15:31:51;5.83;;;2.63;;
7191;SDS011;3637;51.494;11.958;2023-10-08T15:34:54;5.17;;;2.63;;
7191;SDS011;3637;51.494;11.958;2023-10-08T15:37:57;5.23;;;2.43;;
7191;SDS011;3637;51.494;11.958;2023-10-08T15:40:59;4.67;;;2.20;;
7191;SDS011;3637;51.494;11.958;2023-10-08T15:44:02;4.20;;;2.53;;
7191;SDS011;3637;51.494;11.958;2023-10-08T15:47:05;5.57;;;2.67;;
7191;SDS011;3637;51.494;11.958;2023-10-08T15:50:07;4.67;;;2.27;;
7191;SDS011;3637;51.494;11.958;2023-10-08T15:53:11;3.90;;;2.20;;
7191;SDS011;3637;51.494;11.958;2023-10-08T15:56:13;6.73;;;2.63;;
7191;SDS011;3637;51.494;11.958;2023-10-08T15:59:15;4.93;;;2.23;;
7191;SDS011;3637;51.494;11.958;2023-10-08T16:02:17;6.00;;;2.53;;
7191;SDS011;3637;51.494;11.958;2023-10-08T16:05:19;7.87;;;2.97;;
7191;SDS011;3637;51.494;11.958;2023-10-08T16:08:22;5.17;;;2.60;;
7191;SDS011;3637;51.494;11.958;2023-10-08T16:11:24;6.20;;;2.73;;
7191;SDS011;3637;51.494;11.958;2023-10-08T16:14:26;5.20;;;2.87;;
7191;SDS011;3637;51.494;11.958;2023-10-08T16:17:28;3.93;;;2.40;;
7191;SDS011;3637;51.494;11.958;2023-10-08T16:20:30;5.57;;;2.40;;
7191;SDS011;3637;51.494;11.958;2023-10-08T16:23:34;5.13;;;2.40;;
7191;SDS011;3637;51.494;11.958;2023-10-08T16:26:36;5.03;;;2.30;;
7191;SDS011;3637;51.494;11.958;2023-10-08T16:29:38;7.60;;;3.53;;
7191;SDS011;3637;51.494;11.958;2023-10-08T16:32:40;9.50;;;5.27;;
7191;SDS011;3637;51.494;11.958;2023-10-08T16:35:42;7.27;;;4.90;;
7191;SDS011;3637;51.494;11.958;2023-10-08T16:38:50;5.23;;;3.20;;
7191;SDS011;3637;51.494;11.958;2023-10-08T16:41:53;5.97;;;3.87;;
7191;SDS011;3637;51.494;11.958;2023-10-08T16:44:55;5.70;;;3.27;;
7191;SDS011;3637;51.494;11.958;2023-10-08T16:47:57;5.27;;;3.30;;
7191;SDS011;3637;51.494;11.958;2023-10-08T16:50:59;5.53;;;3.20;;
7191;SDS011;3637;51.494;11.958;2023-10-08T16:54:03;6.67;;;2.80;;
7191;SDS011;3637;51.494;11.958;2023-10-08T16:57:08;6.60;;;3.37;;
7191;SDS011;3637;51.494;11.958;2023-10-08T17:00:11;6.57;;;3.00;;
7191;SDS011;3637;51.494;11.958;2023-10-08T17:03:13;5.07;;;2.63;;
7191;SDS011;3637;51.494;11.958;2023-10-08T17:06:16;4.30;;;2.50;;
7191;SDS011;3637;51.494;11.958;2023-10-08T17:09:20;3.97;;;2.40;;
7191;SDS011;3637;51.494;11.958;2023-10-08T17:12:22;4.23;;;2.80;;
7191;SDS011;3637;51.494;11.958;2023-10-08T17:15:25;4.43;;;2.73;;
7191;SDS011;3637;51.494;11.958;2023-10-08T17:18:27;4.83;;;2.60;;
7191;SDS011;3637;51.494;11.958;2023-10-08T17:21:30;4.77;;;2.80;;
7191;SDS011;3637;51.494;11.958;2023-10-08T17:24:33;6.70;;;2.83;;
7191;SDS011;3637;51.494;11.958;2023-10-08T17:27:35;3.73;;;2.40;;
7191;SDS011;3637;51.494;11.958;2023-10-08T17:30:43;5.07;;;2.70;;
7191;SDS011;3637;51.494;11.958;2023-10-08T17:33:45;5.67;;;2.70;;
7191;SDS011;3637;51.494;11.958;2023-10-08T17:36:47;5.80;;;2.97;;
7191;SDS011;3637;51.494;11.958;2023-10-08T17:39:50;3.97;;;2.63;;
7191;SDS011;3637;51.494;11.958;2023-10-08T17:42:52;5.10;;;3.07;;
7191;SDS011;3637;51.494;11.958;2023-10-08T17:45:55;5.43;;;3.10;;
7191;SDS011;3637;51.494;11.958;2023-10-08T17:48:57;5.37;;;2.90;;
7191;SDS011;3637;51.494;11.958;2023-10-08T17:52:00;5.50;;;3.07;;
7191;SDS011;3637;51.494;11.958;2023-10-08T17:55:03;4.63;;;2.50;;
7191;SDS011;3637;51.494;11.958;2023-10-08T17:58:06;3.93;;;2.37;;
7191;SDS011;3637;51.494;11.958;2023-10-08T18:01:09;5.83;;;2.50;;
7191;SDS011;3637;51.494;11.958;2023-10-08T18:04:13;4.90;;;2.83;;
7191;SDS011;3637;51.494;11.958;2023-10-08T18:07:15;4.10;;;2.40;;
7191;SDS011;3637;51.494;11.958;2023-10-08T18:10:19;4.73;;;2.50;;
7191;SDS011;3637;51.494;11.958;2023-10-08T18:13:23;4.83;;;2.70;;
7191;SDS011;3637;51.494;11.958;2023-10-08T18:16:30;4.70;;;3.00;;
7191;SDS011;3637;51.494;11.958;2023-10-08T18:19:32;5.23;;;3.13;;
7191;SDS011;3637;51.494;11.958;2023-10-08T18:22:35;6.70;;;3.67;;
7191;SDS011;3637;51.494;11.958;2023-10-08T18:25:39;6.57;;;4.00;;
7191;SDS011;3637;51.494;11.958;2023-10-08T18:28:41;6.07;;;3.20;;
7191;SDS011;3637;51.494;11.958;2023-10-08T18:31:44;5.37;;;3.30;;
7191;SDS011;3637;51.494;11.958;2023-10-08T18:34:46;6.13;;;3.40;;
7191;SDS011;3637;51.494;11.958;2023-10-08T18:37:49;4.17;;;2.60;;
7191;SDS011;3637;51.494;11.958;2023-10-08T18:40:57;5.93;;;3.00;;
7191;SDS011;3637;51.494;11.958;2023-10-08T18:44:02;4.50;;;2.63;;
7191;SDS011;3637;51.494;11.958;2023-10-08T18:47:04;7.20;;;2.87;;
7191;SDS011;3637;51.494;11.958;2023-10-08T18:50:07;8.07;;;2.87;;
7191;SDS011;3637;51.494;11.958;2023-10-08T18:53:09;7.13;;;3.97;;
7191;SDS011;3637;51.494;11.958;2023-10-08T18:56:14;6.97;;;5.27;;